Butler, TN (37640)

8:00 AM EST on February 13, 2016 (GMT -0500)
Coal Chute | | Change Station
CLOSE
Current Station
Personal Weather Station
Location: Elizabethton, TN
Elevation: 1792 ft
Nearby Weather Stations
Active Advisory: Wind Chill Advisory

Elev 1792 ft 36.31 °N, 82.22 °W | Updated 0 second ago

Mostly Cloudy
Mostly Cloudy
19.0 °F
Feels Like 19 °F
N
0.0
Wind Variable Wind from SW
Gusts 0.0 mph

Today
High -- | Low -- °F
--% Chance of Precip.
Yesterday
High -- | Low -- °F
Precip. -- in
Pressure 30.34 in
Visibility 10.0 miles
Clouds Mostly Cloudy 4600 ft
Windchill 19 °F
Dew Point 0 °F
Humidity 43%
Rainfall 0.00 in
Snow Depth Not available.
7:19 AM 6:07 PM
Waxing Crescent, 30% visible
METAR KTRI 131253Z 32007KT 10SM BKN046 M07/M14 A3032 RMK AO2 SLP274 T10671139
Pressure 30.34 in
Visibility 10.0 miles
Clouds Mostly Cloudy 4600 ft
Windchill 19 °F
Dew Point 0 °F
Humidity 43%
Rainfall 0.00 in
Snow Depth Not available.
7:19 AM 6:07 PM
Waxing Crescent, 30% visible
METAR KTRI 131253Z 32007KT 10SM BKN046 M07/M14 A3032 RMK AO2 SLP274 T10671139

10-Day Weather Forecast

Almanac

Astronomy

Feb. 13, 2016 Rise Set
Actual Time
Civil Twilight
Nautical Twilight
Astronomical Twilight
Moon
Length of Visible Light
Length of Day
Tomorrow will be .
, % of the Moon is Illuminated

Today's Extremes

State Highs State Lows

Community

WunderPhotos

Upload Photos

1,892,543 photos uploaded!

WunderBlog® & News

Nearby

Air Quality

  Air Quality AQ Index Pollutant
Not available.

Snow Depth

Station Depth Elevation

Earthquake Activity

City Distance Mag. Time & Date
Minimum magnitude displayed is 2.5.

Coastal Water Temperatures

Place Temperature

Stations

Nearby Weather Stations

Station Location Temp. Windchill Dew Point Humidity Wind Precip. Elev Updated Type
                   

Watches & Warnings

Wind Chill Advisory
Issued: 4:04 AM EST Feb. 13, 2016 – National Weather Service

... Wind Chill Advisory remains in effect until noon EST today...

* event... wind chill values will be between zero and 10 degrees
below zero at times... especially in the higher elevations.

* Timing... this morning

* impacts... prolonged exposure to low wind chills can lead to
frostbite or hypothermia.

Precautionary/preparedness actions...

A Wind Chill Advisory means that cold air and strong winds will
combine to generate very low wind chills. These conditions can
result in frost bite and lead to hypothermia or even death if
precautions are not taken. Those venturing outdoors should dress
warmly... making sure all exposed skin is covered.